createdAt,value
2023-01-29T00:01:13.895Z,-4.95
2023-01-29T00:03:43.843Z,-4.92
2023-01-29T00:06:16.031Z,-4.87
2023-01-29T00:08:45.621Z,-4.86
2023-01-29T00:11:16.624Z,-4.83
2023-01-29T00:13:46.356Z,-4.81
2023-01-29T00:16:16.077Z,-4.78
2023-01-29T00:18:46.011Z,-4.78
2023-01-29T00:21:20.046Z,-4.77
2023-01-29T00:23:49.839Z,-4.78
2023-01-29T00:26:20.068Z,-4.77
2023-01-29T00:28:51.055Z,-4.79
2023-01-29T00:31:22.557Z,-4.78
2023-01-29T00:33:52.699Z,-4.78
2023-01-29T00:36:25.413Z,-4.77
2023-01-29T00:38:58.820Z,-4.75
2023-01-29T00:41:42.415Z,-4.75
2023-01-29T00:44:24.652Z,-4.76
2023-01-29T00:46:55.039Z,-4.80
2023-01-29T00:49:25.967Z,-4.82
2023-01-29T00:52:10.662Z,-4.83
2023-01-29T00:54:40.309Z,-4.84
2023-01-29T00:57:09.896Z,-4.84
2023-01-29T00:59:40.491Z,-4.86
2023-01-29T01:02:22.616Z,-4.87
2023-01-29T01:04:52.238Z,-4.86
2023-01-29T01:07:24.610Z,-4.83
2023-01-29T01:10:06.489Z,-4.80
2023-01-29T01:12:36.745Z,-4.80
2023-01-29T01:15:06.777Z,-4.81
2023-01-29T01:17:36.486Z,-4.79
2023-01-29T01:20:06.500Z,-4.82
2023-01-29T01:22:38.722Z,-4.83
2023-01-29T01:25:09.132Z,-4.86
2023-01-29T01:27:41.216Z,-4.88
2023-01-29T01:30:13.952Z,-4.90
2023-01-29T01:32:45.178Z,-4.95
2023-01-29T01:35:15.049Z,-4.97
2023-01-29T01:37:47.285Z,-4.97
2023-01-29T01:40:20.218Z,-4.96
2023-01-29T01:42:51.346Z,-4.94
2023-01-29T01:45:24.379Z,-4.94
2023-01-29T01:47:55.662Z,-4.94
2023-01-29T01:50:30.119Z,-4.95
2023-01-29T01:53:07.325Z,-4.92
2023-01-29T01:55:37.962Z,-4.90
2023-01-29T01:58:12.766Z,-4.88
2023-01-29T02:00:42.828Z,-4.85
2023-01-29T02:03:25.833Z,-4.84
2023-01-29T02:06:09.140Z,-4.81
2023-01-29T02:08:58.988Z,-4.78
2023-01-29T02:11:28.602Z,-4.78
2023-01-29T02:13:58.387Z,-4.80
2023-01-29T02:16:28.534Z,-4.80
2023-01-29T02:18:58.584Z,-4.82
2023-01-29T02:22:01.041Z,-4.84
2023-01-29T02:25:10.478Z,-4.85
2023-01-29T02:28:05.733Z,-4.84
2023-01-29T02:30:41.019Z,-4.88
2023-01-29T02:33:17.350Z,-4.89
2023-01-29T02:35:52.642Z,-4.89
2023-01-29T02:38:27.396Z,-4.89
2023-01-29T02:40:59.064Z,-4.91
2023-01-29T02:43:33.065Z,-4.95
2023-01-29T02:46:11.004Z,-5.00
2023-01-29T02:48:46.010Z,-5.04
2023-01-29T02:51:21.818Z,-5.04
2023-01-29T02:53:57.435Z,-5.05
2023-01-29T02:56:31.374Z,-5.04
2023-01-29T02:59:05.000Z,-5.01
2023-01-29T03:01:40.654Z,-4.98
2023-01-29T03:04:14.387Z,-4.93
2023-01-29T03:06:46.257Z,-4.91
2023-01-29T03:09:19.165Z,-4.91
2023-01-29T03:11:51.714Z,-4.93
2023-01-29T03:14:47.293Z,-4.94
2023-01-29T03:17:19.572Z,-4.94
2023-01-29T03:19:50.057Z,-4.93
2023-01-29T03:22:27.915Z,-4.93
2023-01-29T03:25:13.169Z,-4.91
2023-01-29T03:27:59.494Z,-4.91
2023-01-29T03:30:49.791Z,-4.91
2023-01-29T03:33:48.942Z,-4.91
2023-01-29T03:36:22.424Z,-4.91
2023-01-29T03:38:52.251Z,-4.92
2023-01-29T03:41:28.593Z,-4.91
2023-01-29T03:44:03.309Z,-4.93
2023-01-29T03:46:35.269Z,-4.96
2023-01-29T03:49:12.947Z,-4.97
2023-01-29T03:51:59.292Z,-5.00
2023-01-29T03:54:32.417Z,-5.04
2023-01-29T03:57:06.093Z,-5.04
2023-01-29T03:59:41.751Z,-5.03
2023-01-29T04:02:27.926Z,-4.99
2023-01-29T04:05:06.942Z,-4.90
2023-01-29T04:07:44.501Z,-4.87
2023-01-29T04:10:19.936Z,-4.83
2023-01-29T04:12:52.754Z,-4.80
2023-01-29T04:15:23.428Z,-4.77
2023-01-29T04:17:55.563Z,-4.78
2023-01-29T04:20:40.882Z,-4.76
2023-01-29T04:23:22.949Z,-4.73
2023-01-29T04:25:59.498Z,-4.70
2023-01-29T04:28:48.938Z,-4.66
2023-01-29T04:31:19.138Z,-4.63
2023-01-29T04:33:55.921Z,-4.61
2023-01-29T04:36:37.276Z,-4.58
2023-01-29T04:39:14.264Z,-4.55
2023-01-29T04:41:51.020Z,-4.54
2023-01-29T04:44:23.916Z,-4.53
2023-01-29T04:47:00.899Z,-4.50
2023-01-29T04:49:36.753Z,-4.48
2023-01-29T04:52:15.058Z,-4.45
2023-01-29T04:54:53.883Z,-4.43
2023-01-29T04:57:28.114Z,-4.43
2023-01-29T04:59:58.676Z,-4.42
2023-01-29T05:02:30.066Z,-4.42
2023-01-29T05:05:00.468Z,-4.40
2023-01-29T05:07:33.891Z,-4.39
2023-01-29T05:10:03.642Z,-4.40
2023-01-29T05:12:33.412Z,-4.39
2023-01-29T05:15:05.428Z,-4.37
2023-01-29T05:17:35.023Z,-4.35
2023-01-29T05:20:04.643Z,-4.34
2023-01-29T05:22:40.262Z,-4.31
2023-01-29T05:25:23.698Z,-4.29
2023-01-29T05:28:07.260Z,-4.27
2023-01-29T05:30:38.586Z,-4.26
2023-01-29T05:33:13.564Z,-4.25
2023-01-29T05:35:43.205Z,-4.23
2023-01-29T05:38:15.834Z,-4.23
2023-01-29T05:40:45.724Z,-4.23
2023-01-29T05:43:18.557Z,-4.23
2023-01-29T05:45:55.344Z,-4.23
2023-01-29T05:48:25.244Z,-4.25
2023-01-29T05:50:55.036Z,-4.26
2023-01-29T05:53:27.197Z,-4.28
2023-01-29T05:55:57.274Z,-4.30
2023-01-29T05:58:26.865Z,-4.32
2023-01-29T06:00:56.530Z,-4.35
2023-01-29T06:03:26.102Z,-4.37
2023-01-29T06:05:56.154Z,-4.39
2023-01-29T06:08:28.381Z,-4.41
2023-01-29T06:10:57.993Z,-4.40
2023-01-29T06:13:27.680Z,-4.42
2023-01-29T06:15:57.333Z,-4.42
2023-01-29T06:18:26.904Z,-4.42
2023-01-29T06:20:56.486Z,-4.43
2023-01-29T06:23:28.626Z,-4.40
2023-01-29T06:26:02.666Z,-4.38
2023-01-29T06:28:32.315Z,-4.33
2023-01-29T06:31:21.014Z,-4.25
2023-01-29T06:33:52.029Z,-4.13
2023-01-29T06:36:21.629Z,-4.01
2023-01-29T06:38:53.778Z,-3.88
2023-01-29T06:41:25.669Z,-3.76
2023-01-29T06:43:55.452Z,-3.64
2023-01-29T06:46:25.233Z,-3.54
2023-01-29T06:48:54.889Z,-3.44
2023-01-29T06:51:24.658Z,-3.37
2023-01-29T06:53:57.209Z,-3.30
2023-01-29T06:56:27.082Z,-3.24
2023-01-29T06:58:56.682Z,-3.19
2023-01-29T07:01:35.783Z,-3.15
2023-01-29T07:04:06.062Z,-3.10
2023-01-29T07:06:36.243Z,-3.05
2023-01-29T07:09:08.470Z,-3.00
2023-01-29T07:11:38.221Z,-2.98
2023-01-29T07:14:08.114Z,-2.96
2023-01-29T07:16:37.818Z,-2.96
2023-01-29T07:19:07.381Z,-2.94
2023-01-29T07:21:37.020Z,-2.93
2023-01-29T07:24:09.906Z,-2.91
2023-01-29T07:26:39.604Z,-2.89
2023-01-29T07:29:09.148Z,-2.89
2023-01-29T07:31:38.928Z,-2.86
2023-01-29T07:34:08.540Z,-2.83
2023-01-29T07:36:38.127Z,-2.82
2023-01-29T07:39:10.299Z,-2.78
2023-01-29T07:41:39.908Z,-2.72
2023-01-29T07:44:18.309Z,-2.65
2023-01-29T07:46:47.899Z,-2.57
2023-01-29T07:49:17.686Z,-2.49
2023-01-29T07:51:47.297Z,-2.46
2023-01-29T07:54:19.446Z,-2.40
2023-01-29T07:56:49.038Z,-2.36
2023-01-29T07:59:18.809Z,-2.31
2023-01-29T08:01:48.432Z,-2.29
2023-01-29T08:04:17.976Z,-2.25
2023-01-29T08:06:47.636Z,-2.19
2023-01-29T08:09:19.831Z,-2.13
2023-01-29T08:11:49.434Z,-2.08
2023-01-29T08:14:19.005Z,-2.02
2023-01-29T08:16:48.658Z,-2.02
2023-01-29T08:19:18.286Z,-2.01
2023-01-29T08:21:47.896Z,-2.00
2023-01-29T08:24:20.409Z,-1.99
2023-01-29T08:26:50.046Z,-1.95
2023-01-29T08:29:19.633Z,-1.94
2023-01-29T08:31:49.367Z,-1.92
2023-01-29T08:34:19.007Z,-1.88
2023-01-29T08:36:48.576Z,-1.84
2023-01-29T08:39:20.741Z,-1.80
2023-01-29T08:41:50.358Z,-1.74
2023-01-29T08:44:20.124Z,-1.67
2023-01-29T08:46:49.710Z,-1.60
2023-01-29T08:49:19.505Z,-1.52
2023-01-29T08:51:49.137Z,-1.47
2023-01-29T08:54:21.370Z,-1.47
2023-01-29T08:56:51.273Z,-1.52
2023-01-29T08:59:22.868Z,-1.55
2023-01-29T09:01:52.511Z,-1.52
2023-01-29T09:04:22.071Z,-1.49
2023-01-29T09:06:51.658Z,-1.42
2023-01-29T09:09:23.935Z,-1.38
2023-01-29T09:11:53.624Z,-1.35
2023-01-29T09:14:23.380Z,-1.30
2023-01-29T09:16:52.980Z,-1.26
2023-01-29T09:19:22.542Z,-1.23
2023-01-29T09:21:52.311Z,-1.24
2023-01-29T09:24:24.524Z,-1.20
2023-01-29T09:26:54.230Z,-1.16
2023-01-29T09:29:23.890Z,-1.09
2023-01-29T09:31:53.593Z,-0.98
2023-01-29T09:34:23.260Z,-0.90
2023-01-29T09:36:52.834Z,-0.87
2023-01-29T09:39:25.029Z,-0.75
2023-01-29T09:41:59.856Z,-0.65
2023-01-29T09:44:41.374Z,-0.54
2023-01-29T09:47:14.702Z,-0.42
2023-01-29T09:49:48.038Z,-0.29
2023-01-29T09:52:21.209Z,-0.14
2023-01-29T09:55:05.160Z,0.02
2023-01-29T09:57:49.568Z,0.06
2023-01-29T10:00:23.660Z,0.03
2023-01-29T10:03:21.791Z,0.18
2023-01-29T10:06:07.423Z,0.35
2023-01-29T10:08:51.196Z,0.51
2023-01-29T10:11:30.494Z,0.60
2023-01-29T10:14:07.396Z,0.58
2023-01-29T10:16:50.819Z,0.54
2023-01-29T10:19:54.062Z,0.55
2023-01-29T10:22:39.886Z,0.67
2023-01-29T10:25:13.530Z,0.82
2023-01-29T10:27:50.266Z,0.94
2023-01-29T10:30:36.226Z,1.01
2023-01-29T10:33:07.717Z,1.01
2023-01-29T10:35:39.148Z,1.09
2023-01-29T10:38:24.334Z,1.15
2023-01-29T10:40:58.558Z,1.12
2023-01-29T10:43:33.051Z,1.07
2023-01-29T10:46:13.225Z,0.93
2023-01-29T10:48:58.388Z,0.88
2023-01-29T10:51:38.908Z,0.88
2023-01-29T10:54:21.115Z,0.93
2023-01-29T10:57:02.169Z,1.01
2023-01-29T10:59:46.362Z,1.00
2023-01-29T11:02:18.642Z,0.95
2023-01-29T11:04:48.446Z,0.91
2023-01-29T11:07:19.874Z,0.88
2023-01-29T11:09:55.316Z,0.88
2023-01-29T11:12:27.397Z,0.97
2023-01-29T11:15:02.982Z,1.03
2023-01-29T11:17:32.577Z,1.09
2023-01-29T11:20:02.150Z,1.23
2023-01-29T11:22:33.014Z,1.36
2023-01-29T11:25:14.065Z,1.44
2023-01-29T11:27:47.172Z,1.42
2023-01-29T11:30:26.325Z,1.46
2023-01-29T11:33:04.167Z,1.56
2023-01-29T11:35:33.831Z,1.64
2023-01-29T11:38:11.026Z,1.74
2023-01-29T11:40:42.555Z,1.81
2023-01-29T11:43:19.566Z,1.87
2023-01-29T11:45:52.879Z,1.99
2023-01-29T11:48:24.285Z,2.01
2023-01-29T11:50:55.720Z,1.98
2023-01-29T11:53:30.268Z,1.94
2023-01-29T11:55:59.990Z,1.98
2023-01-29T11:58:31.688Z,1.96
2023-01-29T12:01:04.480Z,1.93
2023-01-29T12:03:37.607Z,1.99
2023-01-29T12:06:09.978Z,2.05
2023-01-29T12:08:41.056Z,1.97
2023-01-29T12:11:12.818Z,1.83
2023-01-29T12:13:43.705Z,1.69
2023-01-29T12:16:26.351Z,1.59
2023-01-29T12:18:59.978Z,1.63
2023-01-29T12:21:33.293Z,1.74
2023-01-29T12:24:06.763Z,1.87
2023-01-29T12:26:38.979Z,1.95
2023-01-29T12:29:19.191Z,1.99
2023-01-29T12:31:54.443Z,2.01
2023-01-29T12:34:30.484Z,1.98
2023-01-29T12:37:06.119Z,1.95
2023-01-29T12:39:35.674Z,1.91
2023-01-29T12:42:08.098Z,1.89
2023-01-29T12:44:42.453Z,1.86
2023-01-29T12:47:17.955Z,1.79
2023-01-29T12:49:49.487Z,1.77
2023-01-29T12:52:22.192Z,1.79
2023-01-29T12:54:56.235Z,1.79
2023-01-29T12:57:28.999Z,1.73
2023-01-29T13:00:02.189Z,1.67
2023-01-29T13:02:40.806Z,1.63
2023-01-29T13:05:20.735Z,1.67
2023-01-29T13:07:52.819Z,1.69
2023-01-29T13:10:27.641Z,1.58
2023-01-29T13:13:01.638Z,1.58
2023-01-29T13:15:33.659Z,1.59
2023-01-29T13:18:36.633Z,1.69
2023-01-29T13:21:07.634Z,1.78
2023-01-29T13:23:40.024Z,1.89
2023-01-29T13:26:09.667Z,1.96
2023-01-29T13:28:39.482Z,1.92
2023-01-29T13:31:21.680Z,1.83
2023-01-29T13:34:01.813Z,1.73
2023-01-29T13:36:32.974Z,1.69
2023-01-29T13:39:05.715Z,1.71
2023-01-29T13:41:40.260Z,1.71
2023-01-29T13:44:20.628Z,1.69
2023-01-29T13:46:57.587Z,1.67
2023-01-29T13:49:41.500Z,1.68
2023-01-29T13:52:22.310Z,1.66
2023-01-29T13:54:57.930Z,1.62
2023-01-29T13:57:40.568Z,1.58
2023-01-29T14:01:02.351Z,1.54
2023-01-29T14:04:04.590Z,1.52
2023-01-29T14:06:52.521Z,1.57
2023-01-29T14:09:58.198Z,1.61
2023-01-29T14:12:43.939Z,1.61
2023-01-29T14:15:31.230Z,1.64
2023-01-29T14:18:07.801Z,1.68
2023-01-29T14:20:45.972Z,1.72
2023-01-29T14:23:26.994Z,1.74
2023-01-29T14:25:56.752Z,1.73
2023-01-29T14:28:28.787Z,1.70
2023-01-29T14:30:58.605Z,1.70
2023-01-29T14:33:36.792Z,1.71
2023-01-29T14:36:08.298Z,1.71
2023-01-29T14:38:41.941Z,1.67
2023-01-29T14:41:19.671Z,1.63
2023-01-29T14:43:49.291Z,1.62
2023-01-29T14:46:47.004Z,1.62
2023-01-29T14:49:52.056Z,1.61
2023-01-29T14:52:23.893Z,1.61
2023-01-29T14:54:56.717Z,1.61
2023-01-29T14:57:26.432Z,1.55
2023-01-29T14:59:59.085Z,1.49
2023-01-29T15:02:37.135Z,1.48
2023-01-29T15:05:10.509Z,1.48
2023-01-29T15:07:42.614Z,1.51
2023-01-29T15:10:22.772Z,1.50
2023-01-29T15:12:55.548Z,1.49
2023-01-29T15:15:35.982Z,1.47
2023-01-29T15:18:08.597Z,1.45
2023-01-29T15:20:39.474Z,1.44
2023-01-29T15:23:27.859Z,1.44
2023-01-29T15:26:01.804Z,1.47
2023-01-29T15:28:32.280Z,1.48
2023-01-29T15:31:04.126Z,1.48
2023-01-29T15:33:34.365Z,1.49
2023-01-29T15:36:07.823Z,1.48
2023-01-29T15:38:38.021Z,1.50
2023-01-29T15:41:20.129Z,1.51
2023-01-29T15:43:51.662Z,1.50
2023-01-29T15:46:25.029Z,1.51
2023-01-29T15:48:55.428Z,1.51
2023-01-29T15:51:26.910Z,1.52
2023-01-29T15:53:58.390Z,1.52
2023-01-29T15:56:32.378Z,1.55
2023-01-29T15:59:07.322Z,1.53
2023-01-29T16:01:38.955Z,1.53
2023-01-29T16:04:08.988Z,1.54
2023-01-29T16:06:40.351Z,1.55
2023-01-29T16:09:10.531Z,1.56
2023-01-29T16:11:43.029Z,1.56
2023-01-29T16:14:15.554Z,1.59
2023-01-29T16:16:48.556Z,1.59
2023-01-29T16:19:24.163Z,1.60
2023-01-29T16:21:58.565Z,1.59
2023-01-29T16:24:28.381Z,1.57
2023-01-29T16:27:04.022Z,1.54
2023-01-29T16:29:35.492Z,1.55
2023-01-29T16:32:06.279Z,1.57
2023-01-29T16:34:38.468Z,1.60
2023-01-29T16:37:10.495Z,1.60
2023-01-29T16:39:42.572Z,1.58
2023-01-29T16:42:30.936Z,1.58
2023-01-29T16:45:03.188Z,1.59
2023-01-29T16:47:38.304Z,1.61
2023-01-29T16:50:36.057Z,1.62
2023-01-29T16:53:15.010Z,1.62
2023-01-29T16:55:46.990Z,1.61
2023-01-29T16:58:21.056Z,1.60
2023-01-29T17:00:52.683Z,1.61
2023-01-29T17:03:23.075Z,1.62
2023-01-29T17:05:52.661Z,1.63
2023-01-29T17:08:26.537Z,1.62
2023-01-29T17:10:56.255Z,1.62
2023-01-29T17:13:32.339Z,1.63
2023-01-29T17:16:03.369Z,1.65
2023-01-29T17:18:33.218Z,1.69
2023-01-29T17:21:02.798Z,1.70
2023-01-29T17:23:32.357Z,1.68
2023-01-29T17:26:02.543Z,1.69
2023-01-29T17:28:34.712Z,1.71
2023-01-29T17:31:06.890Z,1.74
2023-01-29T17:33:37.327Z,1.74
2023-01-29T17:36:07.436Z,1.74
2023-01-29T17:38:37.052Z,1.74
2023-01-29T17:41:09.311Z,1.77
2023-01-29T17:43:41.455Z,1.78
2023-01-29T17:46:14.435Z,1.81
2023-01-29T17:48:44.315Z,1.83
2023-01-29T17:51:16.177Z,1.85
2023-01-29T17:53:47.323Z,1.87
2023-01-29T17:56:18.818Z,1.90
2023-01-29T17:58:51.179Z,1.92
2023-01-29T18:01:20.763Z,1.92
2023-01-29T18:03:50.381Z,1.94
2023-01-29T18:06:25.007Z,1.95
2023-01-29T18:08:54.555Z,1.97
2023-01-29T18:11:24.157Z,1.97
2023-01-29T18:13:56.334Z,1.96
2023-01-29T18:16:27.267Z,1.95
2023-01-29T18:18:56.864Z,1.96
2023-01-29T18:21:26.567Z,1.96
2023-01-29T18:23:56.495Z,1.97
2023-01-29T18:26:26.134Z,2.00
2023-01-29T18:28:58.395Z,2.03
2023-01-29T18:31:28.109Z,2.03
2023-01-29T18:33:57.691Z,2.02
2023-01-29T18:36:27.327Z,2.02
2023-01-29T18:38:56.954Z,1.99
2023-01-29T18:41:26.690Z,1.95
2023-01-29T18:43:58.847Z,1.95
2023-01-29T18:46:28.507Z,1.92
2023-01-29T18:48:58.130Z,1.88
2023-01-29T18:51:27.753Z,1.84
2023-01-29T18:53:57.348Z,1.78
2023-01-29T18:56:26.922Z,1.78
2023-01-29T18:58:59.834Z,1.79
2023-01-29T19:01:29.467Z,1.79
2023-01-29T19:04:00.298Z,1.79
2023-01-29T19:06:30.284Z,1.81
2023-01-29T19:08:59.832Z,1.80
2023-01-29T19:11:29.397Z,1.77
2023-01-29T19:14:01.575Z,1.76
2023-01-29T19:16:31.166Z,1.75
2023-01-29T19:19:00.750Z,1.77
2023-01-29T19:21:30.585Z,1.76
2023-01-29T19:24:00.141Z,1.74
2023-01-29T19:26:33.920Z,1.74
2023-01-29T19:29:09.241Z,1.75
2023-01-29T19:31:39.166Z,1.77
2023-01-29T19:34:09.237Z,1.78
2023-01-29T19:36:39.017Z,1.79
2023-01-29T19:39:08.641Z,1.79
2023-01-29T19:41:38.263Z,1.80
2023-01-29T19:44:10.586Z,1.80
2023-01-29T19:46:40.253Z,1.81
2023-01-29T19:49:10.690Z,1.79
2023-01-29T19:51:40.927Z,1.75
2023-01-29T19:54:12.051Z,1.74
2023-01-29T19:56:41.641Z,1.68
2023-01-29T19:59:14.179Z,1.62
2023-01-29T20:01:43.849Z,1.60
2023-01-29T20:04:13.910Z,1.59
2023-01-29T20:06:43.494Z,1.59
2023-01-29T20:09:13.075Z,1.56
2023-01-29T20:11:42.725Z,1.55
2023-01-29T20:14:15.092Z,1.54
2023-01-29T20:16:44.703Z,1.50
2023-01-29T20:19:15.261Z,1.50
2023-01-29T20:21:50.065Z,1.52
2023-01-29T20:24:19.630Z,1.53
2023-01-29T20:26:49.283Z,1.51
2023-01-29T20:29:21.463Z,1.46
2023-01-29T20:31:51.203Z,1.37
2023-01-29T20:34:20.901Z,1.26
2023-01-29T20:36:50.477Z,1.18
2023-01-29T20:39:20.254Z,1.15
2023-01-29T20:41:49.871Z,1.11
2023-01-29T20:44:22.031Z,1.10
2023-01-29T20:46:51.748Z,1.12
2023-01-29T20:49:21.820Z,1.12
2023-01-29T20:51:51.417Z,1.12
2023-01-29T20:54:21.198Z,1.13
2023-01-29T20:56:50.977Z,1.14
2023-01-29T20:59:23.734Z,1.12
2023-01-29T21:01:53.346Z,1.12
2023-01-29T21:04:23.287Z,1.13
2023-01-29T21:06:52.882Z,1.13
2023-01-29T21:09:22.910Z,1.16
2023-01-29T21:11:52.472Z,1.17
2023-01-29T21:14:24.927Z,1.16
2023-01-29T21:16:54.525Z,1.13
2023-01-29T21:19:24.101Z,1.13
2023-01-29T21:21:53.710Z,1.12
2023-01-29T21:24:23.288Z,1.14
2023-01-29T21:26:52.993Z,1.14
2023-01-29T21:29:25.142Z,1.12
2023-01-29T21:31:54.781Z,1.11
2023-01-29T21:34:24.449Z,1.11
2023-01-29T21:36:54.597Z,1.12
2023-01-29T21:39:26.375Z,1.11
2023-01-29T21:42:08.552Z,1.12
2023-01-29T21:44:40.890Z,1.13
2023-01-29T21:47:14.897Z,1.13
2023-01-29T21:49:45.174Z,1.16
2023-01-29T21:52:15.721Z,1.17
2023-01-29T21:54:49.022Z,1.20
2023-01-29T21:57:19.522Z,1.21
2023-01-29T21:59:52.927Z,1.25
2023-01-29T22:02:24.000Z,1.25
2023-01-29T22:05:08.741Z,1.25
2023-01-29T22:07:47.010Z,1.28
2023-01-29T22:10:17.286Z,1.27
2023-01-29T22:12:47.349Z,1.31
2023-01-29T22:15:21.131Z,1.35
2023-01-29T22:17:52.178Z,1.39
2023-01-29T22:20:29.613Z,1.40
2023-01-29T22:23:00.992Z,1.43
2023-01-29T22:25:32.208Z,1.43
2023-01-29T22:28:01.849Z,1.42
2023-01-29T22:30:34.028Z,1.37
2023-01-29T22:33:03.695Z,1.33
2023-01-29T22:35:33.562Z,1.33
2023-01-29T22:38:03.121Z,1.35
2023-01-29T22:40:32.926Z,1.40
2023-01-29T22:43:02.509Z,1.43
2023-01-29T22:45:35.026Z,1.48
2023-01-29T22:48:06.056Z,1.51
2023-01-29T22:50:36.742Z,1.56
2023-01-29T22:53:06.390Z,1.61
2023-01-29T22:55:36.124Z,1.65
2023-01-29T22:58:05.733Z,1.68
2023-01-29T23:00:37.856Z,1.74
2023-01-29T23:03:07.418Z,1.78
2023-01-29T23:05:37.116Z,1.83
2023-01-29T23:08:06.716Z,1.90
2023-01-29T23:10:36.302Z,1.96
2023-01-29T23:13:05.860Z,2.01
2023-01-29T23:15:37.997Z,2.07
2023-01-29T23:18:08.603Z,2.12
2023-01-29T23:20:38.182Z,2.17
2023-01-29T23:23:07.730Z,2.20
2023-01-29T23:25:49.775Z,2.26
2023-01-29T23:28:19.345Z,2.30
2023-01-29T23:30:52.194Z,2.35
2023-01-29T23:33:21.979Z,2.39
2023-01-29T23:35:51.563Z,2.45
2023-01-29T23:38:21.119Z,2.49
2023-01-29T23:40:51.013Z,2.53
2023-01-29T23:43:22.603Z,2.58
2023-01-29T23:45:54.833Z,2.61
2023-01-29T23:48:24.867Z,2.65
2023-01-29T23:50:54.570Z,2.68
2023-01-29T23:53:24.367Z,2.72
2023-01-29T23:56:04.494Z,2.75
2023-01-29T23:58:35.008Z,2.76
